createdAt,value
2023-05-16T00:00:53.527Z,5.00
2023-05-16T00:03:21.181Z,7.70
2023-05-16T00:05:48.655Z,6.40
2023-05-16T00:08:15.815Z,5.50
2023-05-16T00:10:42.950Z,6.20
2023-05-16T00:13:10.107Z,6.90
2023-05-16T00:15:38.803Z,4.70
2023-05-16T00:18:06.514Z,4.40
2023-05-16T00:20:35.040Z,6.30
2023-05-16T00:23:02.299Z,5.30
2023-05-16T00:25:29.471Z,6.40
2023-05-16T00:27:57.108Z,3.40
2023-05-16T00:30:24.417Z,6.90
2023-05-16T00:32:52.272Z,3.80
2023-05-16T00:35:19.488Z,6.40
2023-05-16T00:37:46.640Z,4.30
2023-05-16T00:40:13.791Z,7.10
2023-05-16T00:42:41.051Z,4.60
2023-05-16T00:45:09.150Z,3.40
2023-05-16T00:47:36.595Z,5.00
2023-05-16T00:50:04.533Z,4.10
2023-05-16T00:52:33.904Z,4.90
2023-05-16T00:55:04.290Z,7.70
2023-05-16T00:57:31.636Z,3.80
2023-05-16T00:59:58.793Z,4.00
2023-05-16T01:02:28.713Z,6.00
2023-05-16T01:07:24.236Z,5.40
2023-05-16T01:09:51.398Z,4.50
2023-05-16T01:12:32.972Z,6.30
2023-05-16T01:15:16.224Z,8.90
2023-05-16T01:18:07.478Z,7.40
2023-05-16T01:20:39.119Z,5.30
2023-05-16T01:23:31.427Z,6.90
2023-05-16T01:28:10.070Z,3.90
2023-05-16T01:30:39.638Z,6.80
2023-05-16T01:33:09.138Z,7.30
2023-05-16T01:35:40.520Z,5.80
2023-05-16T01:38:19.039Z,6.70
2023-05-16T01:41:09.652Z,5.30
2023-05-16T01:43:48.608Z,4.30
2023-05-16T01:46:21.475Z,4.70
2023-05-16T01:48:57.924Z,4.70
2023-05-16T01:51:26.110Z,4.70
2023-05-16T01:58:47.455Z,5.10
2023-05-16T02:01:14.662Z,4.30
2023-05-16T02:03:42.476Z,6.40
2023-05-16T02:06:09.720Z,4.70
2023-05-16T02:08:36.877Z,4.90
2023-05-16T02:11:04.025Z,6.80
2023-05-16T02:13:31.199Z,5.60
2023-05-16T02:16:06.968Z,6.60
2023-05-16T02:18:36.079Z,5.70
2023-05-16T02:21:03.277Z,5.60
2023-05-16T02:23:30.647Z,5.30
2023-05-16T02:25:57.790Z,7.10
2023-05-16T02:28:25.146Z,7.70
2023-05-16T02:31:01.358Z,4.60
2023-05-16T02:33:30.006Z,7.10
2023-05-16T02:35:57.160Z,7.00
2023-05-16T02:38:26.445Z,5.50
2023-05-16T02:40:56.159Z,6.40
2023-05-16T02:43:23.292Z,5.00
2023-05-16T02:45:50.819Z,5.90
2023-05-16T02:48:17.921Z,5.80
2023-05-16T02:50:45.076Z,6.30
2023-05-16T02:53:12.530Z,5.00
2023-05-16T02:55:40.028Z,6.40
2023-05-16T02:58:07.342Z,6.10
2023-05-16T03:00:37.495Z,5.00
2023-05-16T03:03:04.805Z,5.00
2023-05-16T03:05:32.445Z,8.70
2023-05-16T03:08:00.147Z,6.30
2023-05-16T03:10:27.403Z,6.70
2023-05-16T03:12:54.659Z,6.60
2023-05-16T03:15:22.634Z,5.00
2023-05-16T03:17:49.843Z,5.40
2023-05-16T03:20:17.034Z,10.00
2023-05-16T03:22:45.530Z,5.30
2023-05-16T03:25:12.668Z,6.30
2023-05-16T03:27:41.260Z,6.50
2023-05-16T03:30:09.489Z,5.20
2023-05-16T03:32:38.343Z,6.40
2023-05-16T03:35:05.979Z,5.70
2023-05-16T03:37:33.244Z,5.90
2023-05-16T03:40:00.631Z,6.20
2023-05-16T03:42:27.845Z,6.70
2023-05-16T03:44:54.992Z,8.90
2023-05-16T03:47:22.150Z,5.50
2023-05-16T03:49:49.203Z,11.70
2023-05-16T03:52:16.347Z,4.70
2023-05-16T03:54:43.410Z,6.40
2023-05-16T03:57:10.857Z,6.40
2023-05-16T03:59:39.336Z,6.30
2023-05-16T04:02:06.835Z,6.30
2023-05-16T04:04:34.054Z,8.60
2023-05-16T04:07:02.292Z,6.10
2023-05-16T04:09:29.371Z,6.40
2023-05-16T04:11:57.275Z,6.00
2023-05-16T04:14:24.606Z,5.90
2023-05-16T04:16:51.989Z,8.50
2023-05-16T04:19:19.646Z,7.60
2023-05-16T04:21:47.183Z,10.50
2023-05-16T04:24:14.326Z,6.30
2023-05-16T04:26:41.479Z,5.50
2023-05-16T04:29:09.154Z,7.90
2023-05-16T04:31:37.454Z,10.50
2023-05-16T04:34:05.097Z,5.30
2023-05-16T04:36:32.962Z,5.50
2023-05-16T04:39:00.202Z,8.20
2023-05-16T04:41:27.282Z,5.40
2023-05-16T04:43:54.716Z,6.70
2023-05-16T04:46:22.329Z,7.10
2023-05-16T04:48:49.529Z,5.70
2023-05-16T04:51:16.685Z,5.70
2023-05-16T04:53:43.830Z,6.00
2023-05-16T04:56:11.491Z,5.20
2023-05-16T04:58:39.570Z,6.60
2023-05-16T05:01:07.742Z,4.10
2023-05-16T05:03:35.305Z,4.70
2023-05-16T05:06:02.456Z,4.90
2023-05-16T05:08:31.652Z,9.30
2023-05-16T05:10:58.810Z,6.80
2023-05-16T05:13:26.176Z,5.10
2023-05-16T05:15:53.331Z,5.90
2023-05-16T05:18:20.697Z,7.10
2023-05-16T05:20:48.018Z,5.50
2023-05-16T05:23:15.172Z,9.30
2023-05-16T05:25:42.426Z,5.30
2023-05-16T05:28:09.583Z,5.70
2023-05-16T05:30:36.831Z,5.40
2023-05-16T05:33:04.145Z,6.30
2023-05-16T05:35:31.545Z,5.00
2023-05-16T05:37:58.694Z,4.20
2023-05-16T05:40:25.841Z,6.50
2023-05-16T05:42:52.992Z,4.50
2023-05-16T05:45:21.925Z,4.50
2023-05-16T05:47:49.330Z,5.30
2023-05-16T05:50:16.800Z,6.30
2023-05-16T05:52:44.154Z,4.90
2023-05-16T05:55:11.306Z,6.50
2023-05-16T05:57:39.384Z,6.80
2023-05-16T06:00:07.556Z,7.70
2023-05-16T06:02:37.494Z,4.60
2023-05-16T06:05:05.598Z,5.50
2023-05-16T06:07:32.806Z,6.00
2023-05-16T06:10:05.186Z,6.50
2023-05-16T06:12:32.645Z,5.60
2023-05-16T06:15:00.104Z,7.20
2023-05-16T06:17:27.304Z,5.90
2023-05-16T06:19:54.601Z,5.30
2023-05-16T06:22:21.754Z,6.70
2023-05-16T06:24:48.912Z,5.60
2023-05-16T06:27:17.198Z,5.50
2023-05-16T06:29:44.334Z,6.90
2023-05-16T06:32:13.337Z,6.80
2023-05-16T06:34:41.101Z,4.40
2023-05-16T06:37:08.547Z,6.60
2023-05-16T06:39:35.703Z,4.70
2023-05-16T06:42:02.955Z,7.10
2023-05-16T06:44:32.364Z,8.20
2023-05-16T06:46:59.633Z,6.70
2023-05-16T06:49:27.011Z,4.70
2023-05-16T06:51:54.233Z,6.10
2023-05-16T06:54:21.898Z,6.10
2023-05-16T06:56:49.149Z,7.80
2023-05-16T06:59:16.496Z,5.40
2023-05-16T07:01:43.815Z,8.20
2023-05-16T07:04:11.255Z,8.10
2023-05-16T07:06:38.875Z,5.40
2023-05-16T07:09:06.545Z,7.90
2023-05-16T07:11:33.799Z,6.60
2023-05-16T07:14:01.042Z,6.10
2023-05-16T07:16:28.900Z,6.70
2023-05-16T07:18:56.622Z,5.60
2023-05-16T07:21:23.938Z,7.40
2023-05-16T07:23:51.557Z,6.50
2023-05-16T07:26:19.153Z,4.80
2023-05-16T07:28:46.404Z,6.90
2023-05-16T07:31:13.605Z,6.90
2023-05-16T07:33:41.120Z,6.30
2023-05-16T07:38:43.108Z,4.90
2023-05-16T07:41:10.469Z,4.80
2023-05-16T07:43:37.717Z,5.90
2023-05-16T07:46:05.629Z,4.50
2023-05-16T07:48:32.955Z,6.00
2023-05-16T07:51:00.189Z,7.40
2023-05-16T07:53:27.389Z,4.90
2023-05-16T07:55:54.597Z,5.00
2023-05-16T07:58:22.151Z,6.00
2023-05-16T08:00:49.761Z,7.60
2023-05-16T08:03:17.087Z,5.80
2023-05-16T08:05:44.780Z,7.00
2023-05-16T08:08:12.190Z,7.90
2023-05-16T08:10:40.064Z,5.70
2023-05-16T08:13:07.321Z,4.40
2023-05-16T08:15:35.181Z,5.70
2023-05-16T08:18:02.575Z,5.00
2023-05-16T08:20:29.897Z,4.10
2023-05-16T08:22:57.150Z,4.10
2023-05-16T08:25:24.427Z,6.20
2023-05-16T08:27:51.872Z,14.60
2023-05-16T08:30:19.639Z,9.60
2023-05-16T08:32:48.156Z,5.30
2023-05-16T08:35:15.578Z,8.80
2023-05-16T08:37:42.932Z,5.20
2023-05-16T08:40:10.890Z,7.10
2023-05-16T08:42:38.382Z,5.90
2023-05-16T08:45:07.256Z,6.20
2023-05-16T08:47:36.960Z,7.50
2023-05-16T08:50:04.886Z,10.30
2023-05-16T08:52:33.735Z,8.90
2023-05-16T08:55:10.758Z,5.30
2023-05-16T08:57:40.325Z,6.50
2023-05-16T09:00:12.415Z,6.20
2023-05-16T09:02:41.608Z,11.50
2023-05-16T09:05:10.659Z,8.10
2023-05-16T09:07:37.908Z,5.90
2023-05-16T09:10:07.272Z,8.80
2023-05-16T09:12:34.994Z,10.50
2023-05-16T09:15:07.235Z,6.80
2023-05-16T09:17:40.451Z,5.50
2023-05-16T09:20:16.322Z,7.10
2023-05-16T09:22:57.427Z,4.20
2023-05-16T09:27:57.638Z,6.90
2023-05-16T09:30:30.307Z,6.90
2023-05-16T09:32:57.848Z,6.30
2023-05-16T09:35:42.499Z,6.50
2023-05-16T09:38:16.913Z,8.70
2023-05-16T09:40:44.976Z,5.30
2023-05-16T09:43:12.334Z,7.90
2023-05-16T09:45:39.800Z,7.20
2023-05-16T09:48:13.437Z,5.20
2023-05-16T09:50:41.272Z,7.20
2023-05-16T09:53:08.731Z,7.10
2023-05-16T09:55:36.221Z,7.00
2023-05-16T09:58:03.594Z,5.30
2023-05-16T10:00:31.924Z,8.70
2023-05-16T10:03:02.165Z,8.90
2023-05-16T10:05:31.404Z,5.40
2023-05-16T10:07:58.708Z,8.60
2023-05-16T10:10:25.973Z,5.00
2023-05-16T10:12:53.236Z,5.90
2023-05-16T10:15:20.684Z,4.40
2023-05-16T10:17:52.433Z,8.00
2023-05-16T10:20:19.692Z,12.00
2023-05-16T10:22:46.952Z,6.70
2023-05-16T10:25:30.707Z,9.70
2023-05-16T10:27:58.778Z,7.00
2023-05-16T10:30:26.225Z,6.80
2023-05-16T10:32:53.687Z,4.70
2023-05-16T10:35:22.099Z,7.10
2023-05-16T10:37:50.456Z,9.20
2023-05-16T10:40:17.911Z,7.40
2023-05-16T10:42:57.701Z,7.30
2023-05-16T10:45:25.303Z,6.50
2023-05-16T10:47:56.849Z,7.50
2023-05-16T10:50:43.930Z,7.80
2023-05-16T10:53:35.158Z,5.60
2023-05-16T10:56:03.614Z,7.70
2023-05-16T10:58:35.407Z,10.50
2023-05-16T11:01:35.141Z,6.30
2023-05-16T11:06:35.542Z,6.00
2023-05-16T11:09:12.098Z,6.90
2023-05-16T11:11:54.313Z,5.90
2023-05-16T11:14:42.889Z,8.00
2023-05-16T11:17:17.059Z,7.20
2023-05-16T11:19:45.671Z,6.80
2023-05-16T11:22:29.635Z,7.20
2023-05-16T11:25:01.750Z,5.20
2023-05-16T11:27:31.136Z,7.10
2023-05-16T11:30:07.523Z,5.30
2023-05-16T11:32:35.787Z,7.80
2023-05-16T11:35:04.282Z,7.50
2023-05-16T11:37:31.714Z,5.30
2023-05-16T11:40:07.194Z,4.20
2023-05-16T11:42:38.888Z,6.50
2023-05-16T11:45:07.277Z,6.30
2023-05-16T11:47:36.506Z,7.30
2023-05-16T11:50:08.867Z,6.50
2023-05-16T11:52:36.577Z,5.40
2023-05-16T11:55:06.577Z,9.00
2023-05-16T12:00:18.123Z,6.80
2023-05-16T12:02:48.228Z,8.50
2023-05-16T12:05:17.319Z,5.90
2023-05-16T12:07:45.338Z,7.20
2023-05-16T12:10:16.185Z,6.00
2023-05-16T12:12:46.096Z,9.00
2023-05-16T12:17:41.189Z,9.80
2023-05-16T12:20:14.845Z,5.80
2023-05-16T12:22:43.378Z,5.50
2023-05-16T12:25:24.396Z,10.20
2023-05-16T12:27:54.914Z,6.80
2023-05-16T12:30:26.719Z,7.90
2023-05-16T12:32:58.632Z,4.80
2023-05-16T12:35:27.156Z,6.50
2023-05-16T12:37:54.690Z,9.10
2023-05-16T12:40:22.310Z,12.90
2023-05-16T12:42:54.932Z,7.20
2023-05-16T12:45:23.364Z,6.10
2023-05-16T12:47:51.349Z,7.30
2023-05-16T12:50:18.752Z,8.10
2023-05-16T12:52:58.798Z,9.20
2023-05-16T12:55:27.286Z,6.90
2023-05-16T12:57:55.869Z,7.60
2023-05-16T13:00:23.752Z,8.80
2023-05-16T13:02:51.047Z,7.40
2023-05-16T13:05:18.557Z,8.00
2023-05-16T13:07:45.915Z,6.20
2023-05-16T13:10:13.872Z,7.60
2023-05-16T13:12:41.347Z,12.10
2023-05-16T13:15:09.897Z,9.20
2023-05-16T13:17:37.880Z,6.60
2023-05-16T13:20:10.681Z,7.80
2023-05-16T13:22:38.046Z,11.20
2023-05-16T13:25:06.480Z,6.80
2023-05-16T13:27:34.404Z,6.60
2023-05-16T13:30:01.652Z,7.60
2023-05-16T13:32:29.021Z,7.40
2023-05-16T13:34:56.934Z,6.20
2023-05-16T13:37:27.001Z,7.50
2023-05-16T13:39:57.286Z,7.90
2023-05-16T13:45:12.948Z,8.00
2023-05-16T13:47:40.203Z,8.60
2023-05-16T13:50:10.350Z,8.10
2023-05-16T13:52:38.568Z,5.90
2023-05-16T13:55:06.410Z,8.20
2023-05-16T13:57:33.714Z,5.80
2023-05-16T14:00:27.576Z,11.70
2023-05-16T14:02:48.749Z,9.80
2023-05-16T14:05:16.177Z,7.00
2023-05-16T14:07:45.384Z,6.50
2023-05-16T14:10:14.048Z,9.80
2023-05-16T14:12:41.711Z,9.80
2023-05-16T14:15:09.757Z,8.60
2023-05-16T14:17:37.293Z,6.30
2023-05-16T14:20:15.769Z,10.20
2023-05-16T14:22:43.023Z,8.60
2023-05-16T14:25:10.882Z,8.30
2023-05-16T14:27:38.143Z,8.70
2023-05-16T14:30:06.608Z,7.50
2023-05-16T14:32:34.320Z,8.70
2023-05-16T14:35:01.654Z,7.00
2023-05-16T14:37:28.906Z,7.40
2023-05-16T14:39:57.603Z,6.90
2023-05-16T14:42:24.852Z,8.50
2023-05-16T14:44:52.414Z,7.70
2023-05-16T14:47:19.671Z,10.60
2023-05-16T14:49:47.866Z,10.40
2023-05-16T14:52:15.306Z,11.70
2023-05-16T14:54:42.563Z,7.30
2023-05-16T14:57:09.817Z,7.00
2023-05-16T14:59:37.586Z,7.80
2023-05-16T15:02:05.922Z,5.60
2023-05-16T15:04:33.344Z,5.20
2023-05-16T15:07:00.881Z,8.50
2023-05-16T15:09:28.141Z,9.70
2023-05-16T15:11:55.389Z,8.30
2023-05-16T15:14:22.653Z,9.20
2023-05-16T15:16:51.252Z,11.90
2023-05-16T15:19:18.568Z,7.50
2023-05-16T15:21:46.473Z,9.60
2023-05-16T15:24:13.743Z,9.20
2023-05-16T15:26:41.771Z,6.90
2023-05-16T15:29:09.050Z,8.00
2023-05-16T15:31:36.458Z,7.00
2023-05-16T15:34:03.755Z,8.60
2023-05-16T15:36:31.218Z,9.60
2023-05-16T15:38:58.345Z,7.60
2023-05-16T15:43:59.946Z,6.90
2023-05-16T15:46:27.879Z,7.80
2023-05-16T15:48:55.174Z,11.70
2023-05-16T15:51:22.426Z,11.10
2023-05-16T15:53:49.722Z,7.70
2023-05-16T15:56:17.140Z,6.80
2023-05-16T15:58:47.058Z,20.70
2023-05-16T16:03:41.759Z,10.40
2023-05-16T16:06:09.385Z,9.50
2023-05-16T16:08:36.692Z,8.30
2023-05-16T16:11:05.177Z,6.30
2023-05-16T16:13:32.958Z,6.80
2023-05-16T16:16:00.225Z,8.10
2023-05-16T16:18:27.825Z,9.70
2023-05-16T16:20:55.116Z,12.70
2023-05-16T16:23:22.473Z,15.90
2023-05-16T16:25:49.829Z,20.80
2023-05-16T16:28:17.081Z,33.80
2023-05-16T16:30:45.058Z,26.40
2023-05-16T16:33:12.370Z,17.10
2023-05-16T16:35:39.666Z,12.60
2023-05-16T16:38:07.470Z,18.70
2023-05-16T16:40:35.207Z,13.00
2023-05-16T16:43:02.470Z,11.80
2023-05-16T16:45:30.347Z,15.00
2023-05-16T16:47:58.182Z,17.60
2023-05-16T16:50:25.661Z,11.70
2023-05-16T16:52:54.246Z,11.60
2023-05-16T16:55:21.700Z,16.50
2023-05-16T16:57:48.954Z,14.50
2023-05-16T17:00:16.677Z,12.70
2023-05-16T17:02:44.124Z,10.80
2023-05-16T17:05:11.542Z,11.30
2023-05-16T17:07:38.797Z,13.90
2023-05-16T17:10:08.047Z,10.50
2023-05-16T17:12:35.506Z,8.80
2023-05-16T17:15:02.819Z,13.20
2023-05-16T17:17:30.306Z,14.00
2023-05-16T17:19:57.579Z,22.70
2023-05-16T17:22:24.885Z,12.20
2023-05-16T17:24:52.140Z,12.70
2023-05-16T17:27:19.452Z,15.20
2023-05-16T17:29:46.750Z,10.20
2023-05-16T17:32:15.336Z,11.30
2023-05-16T17:34:42.796Z,12.20
2023-05-16T17:37:10.982Z,9.50
2023-05-16T17:39:38.749Z,9.90
2023-05-16T17:42:06.316Z,9.90
2023-05-16T17:44:33.565Z,9.60
2023-05-16T17:47:01.126Z,12.30
2023-05-16T17:49:28.406Z,11.30
2023-05-16T17:51:57.016Z,10.50
2023-05-16T17:54:24.732Z,12.70
2023-05-16T17:56:52.095Z,12.00
2023-05-16T17:59:19.654Z,15.30
2023-05-16T18:01:47.110Z,11.70
2023-05-16T18:04:14.876Z,15.00
2023-05-16T18:06:42.698Z,15.40
2023-05-16T18:09:10.618Z,17.00
2023-05-16T18:11:39.035Z,12.30
2023-05-16T18:14:06.778Z,12.00
2023-05-16T18:16:34.028Z,10.70
2023-05-16T18:19:01.821Z,10.90
2023-05-16T18:21:29.160Z,15.10
2023-05-16T18:23:59.369Z,12.10
2023-05-16T18:26:28.047Z,13.20
2023-05-16T18:28:55.895Z,10.40
2023-05-16T18:31:23.188Z,9.90
2023-05-16T18:33:50.449Z,13.40
2023-05-16T18:36:17.696Z,9.90
2023-05-16T18:38:45.358Z,14.50
2023-05-16T18:41:12.678Z,11.60
2023-05-16T18:43:39.987Z,9.80
2023-05-16T18:46:07.433Z,10.90
2023-05-16T18:48:36.070Z,9.60
2023-05-16T18:51:03.791Z,12.90
2023-05-16T18:53:31.378Z,11.90
2023-05-16T18:55:59.036Z,14.30
2023-05-16T18:58:26.575Z,15.50
2023-05-16T19:00:53.839Z,13.60
2023-05-16T19:03:21.451Z,12.50
2023-05-16T19:05:49.097Z,15.30
2023-05-16T19:08:16.646Z,13.20
2023-05-16T19:10:43.880Z,10.40
2023-05-16T19:13:11.142Z,9.30
2023-05-16T19:15:38.541Z,10.20
2023-05-16T19:18:06.738Z,12.80
2023-05-16T19:20:34.824Z,12.30
2023-05-16T19:23:03.546Z,9.90
2023-05-16T19:25:30.913Z,11.60
2023-05-16T19:27:58.779Z,11.90
2023-05-16T19:30:26.301Z,11.20
2023-05-16T19:32:53.913Z,11.80
2023-05-16T19:35:22.064Z,9.70
2023-05-16T19:37:49.262Z,7.40
2023-05-16T19:40:17.401Z,9.70
2023-05-16T19:42:44.877Z,8.80
2023-05-16T19:45:12.227Z,10.10
2023-05-16T19:47:39.724Z,9.10
2023-05-16T19:50:08.051Z,13.00
2023-05-16T19:52:36.684Z,7.40
2023-05-16T19:55:06.103Z,11.20
2023-05-16T19:57:33.400Z,6.50
2023-05-16T20:00:00.553Z,9.60
2023-05-16T20:02:27.841Z,8.00
2023-05-16T20:04:55.314Z,10.60
2023-05-16T20:07:23.540Z,8.20
2023-05-16T20:09:51.514Z,7.80
2023-05-16T20:12:18.766Z,11.20
2023-05-16T20:14:46.859Z,10.40
2023-05-16T20:17:14.092Z,7.30
2023-05-16T20:19:44.237Z,8.80
2023-05-16T20:22:11.848Z,8.50
2023-05-16T20:24:39.136Z,16.00
2023-05-16T20:27:06.391Z,13.00
2023-05-16T20:29:34.193Z,7.70
2023-05-16T20:32:03.560Z,12.50
2023-05-16T20:34:33.791Z,9.80
2023-05-16T20:37:01.038Z,9.80
2023-05-16T20:39:29.324Z,8.80
2023-05-16T20:41:56.773Z,13.00
2023-05-16T20:44:24.133Z,8.80
2023-05-16T20:46:52.102Z,10.60
2023-05-16T20:49:19.356Z,8.30
2023-05-16T20:51:46.622Z,10.50
2023-05-16T20:54:14.272Z,13.30
2023-05-16T20:56:41.528Z,9.60
2023-05-16T20:59:08.781Z,8.90
2023-05-16T21:01:36.184Z,10.20
2023-05-16T21:04:03.539Z,11.40
2023-05-16T21:06:30.855Z,11.10
2023-05-16T21:08:58.212Z,10.10
2023-05-16T21:11:26.804Z,7.90
2023-05-16T21:13:54.360Z,10.90
2023-05-16T21:16:21.613Z,11.80
2023-05-16T21:18:49.055Z,9.20
2023-05-16T21:21:16.430Z,10.90
2023-05-16T21:23:43.688Z,8.90
2023-05-16T21:26:11.569Z,12.20
2023-05-16T21:28:42.738Z,7.20
2023-05-16T21:31:18.558Z,15.00
2023-05-16T21:33:45.856Z,13.00
2023-05-16T21:36:13.292Z,6.10
2023-05-16T21:38:40.522Z,12.70
2023-05-16T21:41:07.779Z,8.70
2023-05-16T21:43:34.930Z,9.30
2023-05-16T21:46:02.186Z,8.00
2023-05-16T21:48:29.489Z,10.70
2023-05-16T21:50:56.898Z,8.90
2023-05-16T21:53:25.426Z,9.00
2023-05-16T21:55:52.640Z,10.40
2023-05-16T21:58:19.885Z,11.80
2023-05-16T22:00:47.038Z,11.80
2023-05-16T22:03:14.558Z,7.90
2023-05-16T22:05:41.855Z,11.70
2023-05-16T22:08:09.217Z,7.90
2023-05-16T22:10:36.469Z,8.80
2023-05-16T22:13:03.911Z,10.40
2023-05-16T22:15:31.385Z,11.10
2023-05-16T22:17:58.692Z,11.30
2023-05-16T22:20:27.164Z,12.10
2023-05-16T22:22:54.485Z,8.50
2023-05-16T22:25:21.680Z,9.10
2023-05-16T22:27:49.193Z,6.40
2023-05-16T22:30:16.561Z,10.40
2023-05-16T22:32:45.982Z,8.60
2023-05-16T22:35:13.984Z,8.60
2023-05-16T22:37:41.314Z,11.60
2023-05-16T22:40:09.450Z,7.80
2023-05-16T22:42:36.738Z,11.00
2023-05-16T22:45:04.273Z,9.60
2023-05-16T22:47:31.594Z,7.30
2023-05-16T22:50:01.957Z,6.30
2023-05-16T22:52:29.215Z,7.90
2023-05-16T22:54:56.469Z,8.90
2023-05-16T22:57:23.726Z,9.70
2023-05-16T22:59:50.981Z,12.60
2023-05-16T23:02:18.441Z,8.40
2023-05-16T23:04:45.736Z,9.00
2023-05-16T23:07:12.954Z,7.10
2023-05-16T23:09:40.204Z,7.20
2023-05-16T23:12:08.206Z,10.50
2023-05-16T23:14:35.430Z,10.90
2023-05-16T23:17:02.682Z,10.80
2023-05-16T23:19:30.114Z,8.00
2023-05-16T23:21:57.612Z,9.80
2023-05-16T23:24:25.478Z,8.20
2023-05-16T23:26:52.724Z,9.20
2023-05-16T23:29:19.982Z,10.50
2023-05-16T23:31:47.231Z,8.30
2023-05-16T23:34:14.600Z,8.80
2023-05-16T23:36:42.767Z,10.20
2023-05-16T23:39:10.022Z,10.60
2023-05-16T23:41:37.326Z,8.50
2023-05-16T23:44:04.748Z,17.90
2023-05-16T23:46:32.614Z,9.00
2023-05-16T23:49:00.021Z,6.30
2023-05-16T23:51:31.226Z,7.60
2023-05-16T23:54:05.843Z,12.20
2023-05-16T23:56:33.194Z,14.40
2023-05-16T23:59:00.456Z,6.70
